Time;durP1;ratioP1;P1;durP2;ratioP2;P2;SDS_P1;SDS_P2;PMS_P1;PMS_P2;Temp;Humidity;BMP_temperature;BMP_pressure;BME280_temperature;BME280_humidity;BME280_pressure;Samples;Min_cycle;Max_cycle;Signal;HPM_P1;HPM_P2
2023/04/21 00:02:02;;;;;;;;;;;10.80;80.30;;;-151.14;100.00;62537.16;4994573;28;19928;-88
2023/04/21 00:04:31;;;;;;;;;;;10.70;81.20;;;-151.14;100.00;62537.16;4994135;28;20228;-87
2023/04/21 00:07:00;;;;;;;;;;;10.70;80.40;;;-151.14;100.00;62537.16;4978558;28;19927;-87
2023/04/21 00:09:28;;;;;;;;;;;10.70;81.20;;;-151.14;100.00;62537.16;4978548;28;19922;-87
2023/04/21 00:11:58;;;;;;;;;;;10.80;80.40;;;-151.14;100.00;62537.16;4978473;28;19921;-87
2023/04/21 00:14:26;;;;;;;;;;;10.70;80.30;;;-151.14;100.00;62537.16;4994238;28;19922;-88
2023/04/21 00:16:54;;;;;;;;;;;10.70;80.20;;;-151.14;100.00;62537.16;4978301;28;19936;-87
2023/04/21 00:19:22;;;;;;;;;;;10.70;80.30;;;-151.14;100.00;62537.16;4994819;28;19936;-87
2023/04/21 00:21:50;;;;;;;;;;;10.70;80.30;;;-151.14;100.00;62537.16;4994358;28;19928;-87
2023/04/21 00:24:18;;;;;;;;;;;10.70;80.30;;;-151.14;100.00;62537.16;4992496;28;20216;-87
2023/04/21 00:26:47;;;;;;;;;;;10.70;80.20;;;-151.14;100.00;62537.16;4978253;28;19925;-88
2023/04/21 00:29:16;;;;;;;;;;;10.70;80.20;;;-151.14;100.00;62537.16;4994556;28;20230;-88
2023/04/21 00:31:44;;;;;;;;;;;10.70;80.10;;;-151.14;100.00;62537.16;4978226;28;19925;-87
2023/04/21 00:34:12;;;;;;;;;;;10.70;80.20;;;-151.14;100.00;62537.16;4977689;28;19922;-87
2023/04/21 00:36:40;;;;;;;;;;;10.70;80.30;;;-151.14;100.00;62537.16;4978023;28;20217;-87
2023/04/21 00:39:08;;;;;;;;;;;10.70;80.30;;;-151.14;100.00;62537.16;4994410;28;19921;-87
2023/04/21 00:41:38;;;;;;;;;;;10.70;80.30;;;-151.14;100.00;62537.16;4978217;28;19938;-87
2023/04/21 00:44:07;;;;;;;;;;;10.70;80.30;;;-151.14;100.00;62537.16;4977383;28;19921;-88
2023/04/21 00:46:37;;;;;;;;;;;10.70;80.40;;;-151.14;100.00;62537.16;4993950;28;19921;-85
2023/04/21 00:49:05;;;;;;;;;;;10.70;80.30;;;-151.14;100.00;62537.16;5011683;28;19921;-86
2023/04/21 00:51:34;;;;;;;;;;;10.70;80.30;;;-151.14;100.00;62537.16;5011670;28;20028;-86
2023/04/21 00:54:03;;;;;;;;;;;10.70;80.30;;;-151.14;100.00;62537.16;4993330;28;19921;-87
2023/04/21 00:56:32;;;;;;;;;;;10.70;80.30;;;-151.14;100.00;62537.16;4993891;28;19927;-87
2023/04/21 00:59:02;;;;;;;;;;;10.70;80.30;;;-151.14;100.00;62537.16;4977970;28;19968;-86
2023/04/21 01:01:30;;;;;;;;;;;10.70;80.30;;;-151.14;100.00;62537.16;4993840;28;20217;-87
2023/04/21 01:04:01;;;;;;;;;;;10.70;80.30;;;-151.14;100.00;62537.16;4993599;28;19928;-86
2023/04/21 01:06:32;;;;;;;;;;;10.70;80.20;;;-151.14;100.00;62537.16;4977497;28;19922;-87
2023/04/21 01:09:00;;;;;;;;;;;10.70;80.20;;;-151.14;100.00;62537.16;4993999;28;19921;-87
2023/04/21 01:11:28;;;;;;;;;;;10.70;80.30;;;-151.14;100.00;62537.16;4993866;28;19928;-87
2023/04/21 01:13:57;;;;;;;;;;;10.70;80.30;;;-151.14;100.00;62537.16;4990453;28;20228;-86
2023/04/21 01:16:25;;;;;;;;;;;10.70;80.20;;;-151.14;100.00;62537.16;4989855;28;19922;-88
2023/04/21 01:18:55;;;;;;;;;;;10.70;80.30;;;-151.14;100.00;62537.16;4990941;28;19922;-87
2023/04/21 01:21:25;;;;;;;;;;;10.70;80.20;;;-151.14;100.00;62537.16;4990794;28;19928;-87
2023/04/21 01:23:56;;;;;;;;;;;10.70;80.10;;;-151.14;100.00;62537.16;4990670;28;20117;-86
2023/04/21 01:26:24;;;;;;;;;;;10.70;80.10;;;-151.14;100.00;62537.16;4991103;28;20217;-87
2023/04/21 01:28:52;;;;;;;;;;;10.70;80.20;;;-151.14;100.00;62537.16;4990598;28;19922;-87
2023/04/21 01:31:20;;;;;;;;;;;10.70;80.30;;;-151.14;100.00;62537.16;4990179;28;19929;-87
2023/04/21 01:33:49;;;;;;;;;;;10.70;80.20;;;-151.14;100.00;62537.16;4990434;28;20106;-87
2023/04/21 01:36:17;;;;;;;;;;;10.70;80.30;;;-151.14;100.00;62537.16;4976077;28;19922;-87
2023/04/21 01:38:45;;;;;;;;;;;10.70;80.30;;;-151.14;100.00;62537.16;4977583;28;19928;-87
2023/04/21 01:41:15;;;;;;;;;;;10.70;80.30;;;-151.14;100.00;62537.16;4977447;28;19922;-86
2023/04/21 01:43:43;;;;;;;;;;;10.70;80.30;;;-151.14;100.00;62537.16;4993668;28;19944;-87
2023/04/21 01:46:11;;;;;;;;;;;10.70;80.40;;;-151.14;100.00;62537.16;4992879;28;19929;-87
2023/04/21 01:48:39;;;;;;;;;;;10.70;80.40;;;-151.14;100.00;62537.16;4993683;28;20099;-86
2023/04/21 01:51:07;;;;;;;;;;;10.70;80.50;;;-151.14;100.00;62537.16;4977340;28;19922;-87
2023/04/21 01:53:35;;;;;;;;;;;10.70;80.50;;;-151.14;100.00;62537.16;4977342;28;19928;-87
2023/04/21 01:56:03;;;;;;;;;;;10.70;80.50;;;-151.14;100.00;62537.16;4976691;28;19929;-87
2023/04/21 01:58:33;;;;;;;;;;;10.70;80.50;;;-151.14;100.00;62537.16;4993518;28;19928;-87
2023/04/21 02:01:01;;;;;;;;;;;10.70;80.50;;;-151.14;100.00;62537.16;4977220;28;19922;-87
2023/04/21 02:03:29;;;;;;;;;;;10.70;80.40;;;-151.14;100.00;62537.16;4993483;28;19922;-87
2023/04/21 02:05:58;;;;;;;;;;;10.70;80.40;;;-151.14;100.00;62537.16;4992650;28;19928;-87
2023/04/21 02:08:26;;;;;;;;;;;10.70;80.50;;;-151.14;100.00;62537.16;4992594;28;19921;-87
2023/04/21 02:10:54;;;;;;;;;;;10.70;80.50;;;-151.14;100.00;62537.16;4992377;28;19936;-87
2023/04/21 02:13:22;;;;;;;;;;;10.70;80.40;;;-151.14;100.00;62537.16;4977143;28;19922;-87
2023/04/21 02:15:53;;;;;;;;;;;10.70;80.40;;;-151.14;100.00;62537.16;4976408;28;19928;-86
2023/04/21 02:18:21;;;;;;;;;;;10.70;80.50;;;-151.14;100.00;62537.16;4994309;28;19921;-86
2023/04/21 02:20:49;;;;;;;;;;;10.70;80.50;;;-151.14;100.00;62537.16;4993186;28;19928;-87
2023/04/21 02:23:17;;;;;;;;;;;10.70;80.50;;;-151.14;100.00;62537.16;4976908;28;19928;-87
2023/04/21 02:25:45;;;;;;;;;;;10.70;80.50;;;-151.14;100.00;62537.16;4992475;28;19993;-87
2023/04/21 02:28:14;;;;;;;;;;;10.70;80.50;;;-151.14;100.00;62537.16;4993021;28;19922;-86
2023/04/21 02:30:42;;;;;;;;;;;10.70;80.60;;;-151.14;100.00;62537.16;4992966;28;19929;-87
2023/04/21 02:33:11;;;;;;;;;;;10.70;80.50;;;-151.14;100.00;62537.16;4992948;28;20209;-87
2023/04/21 02:35:39;;;;;;;;;;;10.70;80.50;;;-151.14;100.00;62537.16;5008693;28;19922;-87
2023/04/21 02:38:07;;;;;;;;;;;10.70;80.60;;;-151.14;100.00;62537.16;4976593;28;19922;-87
2023/04/21 02:40:36;;;;;;;;;;;10.70;80.60;;;-151.14;100.00;62537.16;4976767;28;19954;-87
2023/04/21 02:43:04;;;;;;;;;;;10.70;80.60;;;-151.14;100.00;62537.16;4992817;28;19922;-88
2023/04/21 02:45:32;;;;;;;;;;;10.70;80.60;;;-151.14;100.00;62537.16;4992124;28;19922;-88
2023/04/21 02:48:00;;;;;;;;;;;10.70;80.60;;;-151.14;100.00;62537.16;4975689;28;19930;-87
2023/04/21 02:50:32;;;;;;;;;;;10.70;80.60;;;-151.14;100.00;62537.16;4995860;28;19928;-88
2023/04/21 02:53:00;;;;;;;;;;;10.70;80.60;;;-151.14;100.00;62537.16;5013194;28;19980;-88
2023/04/21 02:55:28;;;;;;;;;;;10.70;80.60;;;-151.14;100.00;62537.16;4979150;28;19921;-88
2023/04/21 02:57:56;;;;;;;;;;;10.70;80.60;;;-151.14;100.00;62537.16;4979458;28;19928;-87
2023/04/21 03:00:25;;;;;;;;;;;10.70;80.60;;;-151.14;100.00;62537.16;4979483;28;19921;-88
2023/04/21 03:02:58;;;;;;;;;;;10.70;80.60;;;-151.14;100.00;62537.16;4995670;28;20217;-88
2023/04/21 03:05:26;;;;;;;;;;;10.70;80.60;;;-151.14;100.00;62537.16;4979082;28;20102;-87
2023/04/21 03:07:55;;;;;;;;;;;10.70;80.70;;;-151.14;100.00;62537.16;4979508;28;19921;-88
2023/04/21 03:10:23;;;;;;;;;;;10.70;80.70;;;-151.14;100.00;62537.16;4995912;28;19921;-88
2023/04/21 03:12:52;;;;;;;;;;;10.70;80.70;;;-151.14;100.00;62537.16;4979237;28;19921;-88
2023/04/21 03:15:21;;;;;;;;;;;10.70;80.60;;;-151.14;100.00;62537.16;4994957;28;19928;-88
2023/04/21 03:17:49;;;;;;;;;;;10.70;80.40;;;-151.14;100.00;62537.16;4995629;28;19921;-88
2023/04/21 03:20:18;;;;;;;;;;;10.70;80.50;;;-151.14;100.00;62537.16;4979286;28;19928;-87
2023/04/21 03:22:48;;;;;;;;;;;10.70;80.50;;;-151.14;100.00;62537.16;4979125;28;19921;-88
2023/04/21 03:25:17;;;;;;;;;;;10.70;80.50;;;-151.14;100.00;62537.16;4978701;28;19921;-88
2023/04/21 03:27:46;;;;;;;;;;;10.70;80.40;;;-151.14;100.00;62537.16;4979125;28;20117;-88
2023/04/21 03:30:14;;;;;;;;;;;10.70;80.40;;;-151.14;100.00;62537.16;4979246;28;19921;-88
2023/04/21 03:32:42;;;;;;;;;;;10.70;80.40;;;-151.14;100.00;62537.16;5011530;28;19922;-88
2023/04/21 03:35:10;;;;;;;;;;;10.70;80.40;;;-151.14;100.00;62537.16;4978567;28;19921;-87
2023/04/21 03:37:38;;;;;;;;;;;10.70;80.30;;;-151.14;100.00;62537.16;4978774;28;19935;-87
2023/04/21 03:40:08;;;;;;;;;;;10.70;80.30;;;-151.14;100.00;62537.16;4978404;28;19921;-87
2023/04/21 03:42:37;;;;;;;;;;;10.70;80.40;;;-151.14;100.00;62537.16;4994950;28;19929;-88
2023/04/21 03:45:06;;;;;;;;;;;10.70;80.40;;;-151.14;100.00;62537.16;4978473;28;19928;-87
2023/04/21 03:47:35;;;;;;;;;;;10.70;80.20;;;-151.14;100.00;62537.16;4994879;28;20005;-88
2023/04/21 03:50:04;;;;;;;;;;;10.70;80.20;;;-151.14;100.00;62537.16;4978739;28;19928;-86
2023/04/21 03:52:32;;;;;;;;;;;10.60;80.10;;;-151.14;100.00;62537.16;4994768;28;19928;-87
2023/04/21 03:55:00;;;;;;;;;;;10.70;80.20;;;-151.14;100.00;62537.16;4994299;28;19928;-87
2023/04/21 03:57:28;;;;;;;;;;;10.60;80.90;;;-151.14;100.00;62537.16;5011052;28;19922;-86
2023/04/21 03:59:57;;;;;;;;;;;10.70;80.20;;;-151.14;100.00;62537.16;5012272;28;19921;-87
2023/04/21 04:02:25;;;;;;;;;;;10.60;80.10;;;-151.14;100.00;62537.16;4977954;28;19921;-87
2023/04/21 04:04:54;;;;;;;;;;;10.70;80.30;;;-151.14;100.00;62537.16;4978115;28;19921;-88
2023/04/21 04:07:22;;;;;;;;;;;10.70;80.30;;;-151.14;100.00;62537.16;4978278;28;19926;-88
2023/04/21 04:09:50;;;;;;;;;;;10.70;80.10;;;-151.14;100.00;62537.16;4994547;28;19921;-88
2023/04/21 04:12:18;;;;;;;;;;;10.60;80.00;;;-151.14;100.00;62537.16;4994638;28;19921;-87
2023/04/21 04:14:46;;;;;;;;;;;10.60;80.10;;;-151.14;100.00;62537.16;4977840;28;19927;-87
2023/04/21 04:17:15;;;;;;;;;;;10.70;80.20;;;-151.14;100.00;62537.16;4978398;28;19921;-88
2023/04/21 04:19:43;;;;;;;;;;;10.60;80.10;;;-151.14;100.00;62537.16;4994800;28;19922;-88
2023/04/21 04:22:11;;;;;;;;;;;10.60;80.20;;;-151.14;100.00;62537.16;4978543;28;19928;-88
2023/04/21 04:24:39;;;;;;;;;;;10.60;80.10;;;-151.14;100.00;62537.16;4977765;28;19922;-87
2023/04/21 04:27:08;;;;;;;;;;;10.60;80.10;;;-151.14;100.00;62537.16;5011914;28;19922;-86
2023/04/21 04:29:36;;;;;;;;;;;10.60;80.10;;;-151.14;100.00;62537.16;5011820;28;19937;-87
2023/04/21 04:32:05;;;;;;;;;;;10.60;80.20;;;-151.14;100.00;62537.16;4978352;28;19921;-87
2023/04/21 04:34:36;;;;;;;;;;;10.60;80.20;;;-151.14;100.00;62537.16;4977651;28;19921;-87
2023/04/21 04:37:05;;;;;;;;;;;10.70;80.30;;;-151.14;100.00;62537.16;4978116;28;19921;-86
2023/04/21 04:39:33;;;;;;;;;;;10.60;80.10;;;-151.14;100.00;62537.16;4978086;28;19927;-87
2023/04/21 04:42:02;;;;;;;;;;;10.60;80.10;;;-151.14;100.00;62537.16;4978141;28;19922;-87
2023/04/21 04:44:30;;;;;;;;;;;10.60;80.10;;;-151.14;100.00;62537.16;4977442;28;19921;-87
2023/04/21 04:46:58;;;;;;;;;;;10.70;80.20;;;-151.14;100.00;62537.16;4977989;28;19921;-87
2023/04/21 04:49:26;;;;;;;;;;;10.60;80.00;;;-151.14;100.00;62537.16;5010593;28;19921;-87
2023/04/21 04:51:56;;;;;;;;;;;10.70;80.30;;;-151.14;100.00;62537.16;4977946;28;19921;-87
2023/04/21 04:54:24;;;;;;;;;;;10.60;80.30;;;-151.14;100.00;62537.16;4993670;28;19929;-87
2023/04/21 04:56:52;;;;;;;;;;;10.70;80.30;;;-151.14;100.00;62537.16;4977942;28;19927;-87
2023/04/21 04:59:20;;;;;;;;;;;10.70;80.30;;;-151.14;100.00;62537.16;4994141;28;20117;-87
2023/04/21 05:01:48;;;;;;;;;;;10.70;80.30;;;-151.14;100.00;62537.16;4994152;28;20231;-87
2023/04/21 05:04:16;;;;;;;;;;;10.70;80.40;;;-151.14;100.00;62537.16;4977127;28;19921;-88
2023/04/21 05:06:45;;;;;;;;;;;10.70;80.50;;;-151.14;100.00;62537.16;4977956;28;19928;-87
2023/04/21 05:09:14;;;;;;;;;;;10.70;80.70;;;-151.14;100.00;62537.16;4977785;28;19921;-87
2023/04/21 05:11:43;;;;;;;;;;;10.70;80.60;;;-151.14;100.00;62537.16;4981447;28;20205;-86
2023/04/21 05:14:11;;;;;;;;;;;10.70;80.70;;;-151.14;100.00;62537.16;4980500;28;20124;-88
2023/04/21 05:16:39;;;;;;;;;;;10.70;80.60;;;-151.14;100.00;62537.16;4980712;28;19922;-88
2023/04/21 05:19:07;;;;;;;;;;;10.70;80.70;;;-151.14;100.00;62537.16;4993878;28;19922;-87
2023/04/21 05:21:35;;;;;;;;;;;10.70;80.60;;;-151.14;100.00;62537.16;4994169;28;19922;-87
2023/04/21 05:24:03;;;;;;;;;;;10.70;80.50;;;-151.14;100.00;62537.16;4993308;28;19936;-87
2023/04/21 05:26:32;;;;;;;;;;;10.70;80.50;;;-151.14;100.00;62537.16;4977724;28;19928;-87
2023/04/21 05:29:01;;;;;;;;;;;10.70;80.60;;;-151.14;100.00;62537.16;5010293;28;19922;-87
2023/04/21 05:31:28;;;;;;;;;;;10.70;80.50;;;-151.14;100.00;62537.16;4994058;28;19922;-88
2023/04/21 05:33:57;;;;;;;;;;;10.70;80.50;;;-151.14;100.00;62537.16;4993872;28;19921;-88
2023/04/21 05:36:25;;;;;;;;;;;10.70;80.60;;;-151.14;100.00;62537.16;5009851;28;19922;-86
2023/04/21 05:38:53;;;;;;;;;;;10.70;80.80;;;-151.14;100.00;62537.16;4977450;28;20117;-86
2023/04/21 05:41:22;;;;;;;;;;;10.70;80.90;;;-151.14;100.00;62537.16;4977841;28;19921;-87
2023/04/21 05:43:51;;;;;;;;;;;10.70;81.10;;;-151.14;100.00;62537.16;4977510;28;19922;-87
2023/04/21 05:46:19;;;;;;;;;;;10.70;81.10;;;-151.14;100.00;62537.16;4993038;28;19922;-87
2023/04/21 05:48:47;;;;;;;;;;;10.70;81.10;;;-151.14;100.00;62537.16;4994668;28;19928;-87
2023/04/21 05:51:15;;;;;;;;;;;10.80;81.10;;;-151.14;100.00;62537.16;5010049;28;20236;-87
2023/04/21 05:53:44;;;;;;;;;;;10.80;81.10;;;-151.14;100.00;62537.16;4977258;28;19922;-87
2023/04/21 05:56:12;;;;;;;;;;;10.80;81.10;;;-151.14;100.00;62537.16;4994012;28;20113;-87
2023/04/21 05:58:40;;;;;;;;;;;10.80;81.20;;;-151.14;100.00;62537.16;4996609;28;19921;-87
2023/04/21 06:01:10;;;;;;;;;;;10.80;81.00;;;-151.14;100.00;62537.16;4996668;28;19921;-88
2023/04/21 06:03:38;;;;;;;;;;;10.80;81.10;;;-151.14;100.00;62537.16;4996300;28;19928;-87
2023/04/21 06:06:06;;;;;;;;;;;10.80;81.10;;;-151.14;100.00;62537.16;4995643;28;20215;-88
2023/04/21 06:08:34;;;;;;;;;;;10.80;81.30;;;-151.14;100.00;62537.16;4980220;28;19928;-88
2023/04/21 06:11:02;;;;;;;;;;;10.80;81.20;;;-151.14;100.00;62537.16;4996551;28;19921;-86
2023/04/21 06:13:30;;;;;;;;;;;10.80;81.10;;;-151.14;100.00;62537.16;4980258;28;20143;-87
2023/04/21 06:15:58;;;;;;;;;;;10.80;81.10;;;-151.14;100.00;62537.16;4979670;28;19928;-87
2023/04/21 06:18:28;;;;;;;;;;;10.80;81.10;;;-151.14;100.00;62537.16;4980307;28;19928;-87
2023/04/21 06:20:56;;;;;;;;;;;10.80;81.10;;;-151.14;100.00;62537.16;4979361;28;19921;-87
2023/04/21 06:23:24;;;;;;;;;;;10.80;81.10;;;-151.14;100.00;62537.16;4979624;28;19928;-87
2023/04/21 06:26:00;;;;;;;;;;;10.80;81.20;;;-151.14;100.00;62537.16;4995784;28;19928;-87
2023/04/21 06:28:28;;;;;;;;;;;10.80;81.20;;;-151.14;100.00;62537.16;4996253;28;19922;-87
2023/04/21 06:30:56;;;;;;;;;;;10.80;81.30;;;-151.14;100.00;62537.16;4980064;28;19921;-87
2023/04/21 06:33:25;;;;;;;;;;;10.80;81.20;;;-151.14;100.00;62537.16;4980091;28;19921;-87
2023/04/21 06:35:55;;;;;;;;;;;10.80;81.10;;;-151.14;100.00;62537.16;5011830;28;19928;-87
2023/04/21 06:38:23;;;;;;;;;;;10.80;81.10;;;-151.14;100.00;62537.16;4996273;28;19928;-87
2023/04/21 06:40:51;;;;;;;;;;;10.80;81.90;;;-151.14;100.00;62537.16;4996025;28;19928;-87
2023/04/21 06:43:19;;;;;;;;;;;10.80;81.10;;;-151.14;100.00;62537.16;5013488;28;19921;-87
2023/04/21 06:45:47;;;;;;;;;;;10.80;81.10;;;-151.14;100.00;62537.16;4979459;28;19929;-87
2023/04/21 06:48:15;;;;;;;;;;;10.80;81.10;;;-151.14;100.00;62537.16;4979893;28;19921;-87
2023/04/21 06:50:45;;;;;;;;;;;10.80;81.00;;;-151.14;100.00;62537.16;4995883;28;19922;-87
2023/04/21 06:53:14;;;;;;;;;;;10.80;81.00;;;-151.14;100.00;62537.16;4995713;28;20209;-87
2023/04/21 06:55:42;;;;;;;;;;;10.80;80.90;;;-151.14;100.00;62537.16;4975786;28;20340;-87
2023/04/21 06:58:11;;;;;;;;;;;10.80;80.90;;;-151.14;100.00;62537.16;4992577;28;19922;-88
2023/04/21 07:00:39;;;;;;;;;;;10.80;80.90;;;-151.14;100.00;62537.16;4995709;28;20239;-88
2023/04/21 07:03:07;;;;;;;;;;;10.90;81.10;;;-151.14;100.00;62537.16;4979227;28;19921;-88
2023/04/21 07:05:35;;;;;;;;;;;10.90;81.10;;;-151.14;100.00;62537.16;4995206;28;19927;-86
2023/04/21 07:08:03;;;;;;;;;;;10.90;81.00;;;-151.14;100.00;62537.16;4979273;28;19922;-87
2023/04/21 07:10:33;;;;;;;;;;;10.90;81.00;;;-151.14;100.00;62537.16;4979300;28;19928;-87
2023/04/21 07:13:01;;;;;;;;;;;10.90;81.00;;;-151.14;100.00;62537.16;4979361;28;19922;-87
2023/04/21 07:15:29;;;;;;;;;;;10.90;80.90;;;-151.14;100.00;62537.16;4978886;28;19928;-88
2023/04/21 07:17:58;;;;;;;;;;;10.90;80.90;;;-151.14;100.00;62537.16;5012941;28;20213;-88
2023/04/21 07:20:26;;;;;;;;;;;10.90;80.90;;;-151.14;100.00;62537.16;4979146;28;19927;-87
2023/04/21 07:22:54;;;;;;;;;;;10.90;80.90;;;-151.14;100.00;62537.16;4979181;28;19928;-87
2023/04/21 07:25:22;;;;;;;;;;;10.90;80.90;;;-151.14;100.00;62537.16;4978669;28;19922;-87
2023/04/21 07:27:52;;;;;;;;;;;10.90;80.80;;;-151.14;100.00;62537.16;4979335;28;20213;-87
2023/04/21 07:30:20;;;;;;;;;;;10.90;80.80;;;-151.14;100.00;62537.16;4995473;28;19921;-88
2023/04/21 07:32:48;;;;;;;;;;;10.90;80.70;;;-151.14;100.00;62537.16;4994960;28;19921;-87
2023/04/21 07:35:16;;;;;;;;;;;10.90;80.70;;;-151.14;100.00;62537.16;4994803;28;19928;-88
2023/04/21 07:37:44;;;;;;;;;;;10.90;80.70;;;-151.14;100.00;62537.16;4978919;28;19922;-87
2023/04/21 07:40:12;;;;;;;;;;;10.90;80.70;;;-151.14;100.00;62537.16;4978863;28;19927;-87
2023/04/21 07:42:40;;;;;;;;;;;10.90;80.70;;;-151.14;100.00;62537.16;4995023;28;20121;-88
2023/04/21 07:45:11;;;;;;;;;;;10.90;80.60;;;-151.14;100.00;62537.16;4994735;28;20094;-87
2023/04/21 07:47:39;;;;;;;;;;;11.00;80.60;;;-151.14;100.00;62537.16;4978794;28;19922;-88
2023/04/21 07:50:09;;;;;;;;;;;11.00;80.50;;;-151.14;100.00;62537.16;4978804;28;20209;-88
2023/04/21 07:52:37;;;;;;;;;;;11.00;80.40;;;-151.14;100.00;62537.16;4978895;28;19922;-88
2023/04/21 07:55:06;;;;;;;;;;;11.00;80.30;;;-151.14;100.00;62537.16;4994415;28;20209;-88
2023/04/21 07:57:37;;;;;;;;;;;11.00;80.30;;;-151.14;100.00;62537.16;4995042;28;19928;-88
2023/04/21 08:00:06;;;;;;;;;;;11.10;80.30;;;-151.14;100.00;62537.16;4994766;28;20248;-88
2023/04/21 08:02:41;;;;;;;;;;;11.10;80.20;;;-151.14;100.00;62537.16;4994681;28;20325;-88
2023/04/21 08:05:09;;;;;;;;;;;11.10;80.10;;;-151.14;100.00;62537.16;4994131;28;20239;-88
2023/04/21 08:07:38;;;;;;;;;;;11.10;80.00;;;-151.14;100.00;62537.16;4978708;28;19922;-88
2023/04/21 08:10:07;;;;;;;;;;;11.20;79.80;;;-151.14;100.00;62537.16;4994705;28;19928;-88
2023/04/21 08:12:35;;;;;;;;;;;11.20;79.80;;;-151.14;100.00;62537.16;4978553;28;19928;-88
2023/04/21 08:15:06;;;;;;;;;;;11.20;79.70;;;-151.14;100.00;62537.16;4977925;28;19928;-88
2023/04/21 08:17:34;;;;;;;;;;;11.20;79.60;;;-151.14;100.00;62537.16;4978487;28;20109;-87
2023/04/21 08:20:04;;;;;;;;;;;11.20;79.50;;;-151.14;100.00;62537.16;4978524;28;19975;-87
2023/04/21 08:22:34;;;;;;;;;;;11.30;79.40;;;-151.14;100.00;62537.16;4978111;28;20120;-87
2023/04/21 08:25:02;;;;;;;;;;;11.30;79.40;;;-151.14;100.00;62537.16;4977851;28;19922;-87
2023/04/21 08:27:30;;;;;;;;;;;11.30;79.40;;;-151.14;100.00;62537.16;4994514;28;20113;-88
2023/04/21 08:29:59;;;;;;;;;;;11.30;79.40;;;-151.14;100.00;62537.16;4978307;28;19928;-87
2023/04/21 08:32:27;;;;;;;;;;;11.30;79.40;;;-151.14;100.00;62537.16;4994519;28;20117;-88
2023/04/21 08:34:55;;;;;;;;;;;11.30;79.40;;;-151.14;100.00;62537.16;4977839;28;19927;-88
2023/04/21 08:37:24;;;;;;;;;;;11.30;79.40;;;-151.14;100.00;62537.16;4994359;28;19921;-89
2023/04/21 08:39:53;;;;;;;;;;;11.30;79.50;;;-151.14;100.00;62537.16;4978226;28;19922;-89
2023/04/21 08:42:21;;;;;;;;;;;11.20;79.40;;;-151.14;100.00;62537.16;4974923;28;20330;-88
2023/04/21 08:44:49;;;;;;;;;;;11.20;79.50;;;-151.14;100.00;62537.16;4989528;28;19922;-88
2023/04/21 08:47:19;;;;;;;;;;;11.20;79.50;;;-151.14;100.00;62537.16;4974902;28;19928;-88
2023/04/21 08:49:47;;;;;;;;;;;11.20;79.50;;;-151.14;100.00;62537.16;4974910;28;19928;-86
2023/04/21 08:52:15;;;;;;;;;;;11.20;79.50;;;-151.14;100.00;62537.16;4974673;28;19933;-87
2023/04/21 08:54:46;;;;;;;;;;;11.20;79.40;;;-151.14;100.00;62537.16;4974349;28;19926;-87
2023/04/21 08:57:14;;;;;;;;;;;11.30;79.50;;;-151.14;100.00;62537.16;4990919;28;19944;-87
2023/04/21 08:59:42;;;;;;;;;;;11.30;79.40;;;-151.14;100.00;62537.16;4974837;28;19933;-88
2023/04/21 09:02:11;;;;;;;;;;;11.30;79.50;;;-151.14;100.00;62537.16;4977789;28;20243;-88
2023/04/21 09:04:39;;;;;;;;;;;11.30;79.40;;;-151.14;100.00;62537.16;4989209;23;19909;-83
2023/04/21 09:07:08;;;;;;;;;;;11.30;79.40;;;-151.14;100.00;62537.16;4937893;29;19923;-82
2023/04/21 09:09:54;;;;;;;;;;;11.30;79.30;;;-151.14;100.00;62537.16;4936360;29;20236;-83
2023/04/21 09:12:23;;;;;;;;;;;11.40;79.10;;;-151.14;100.00;62537.16;4936211;29;19923;-83
2023/04/21 09:14:51;;;;;;;;;;;11.40;79.10;;;-151.14;100.00;62537.16;4951523;29;19923;-82
2023/04/21 09:17:21;;;;;;;;;;;11.40;79.00;;;-151.14;100.00;62537.16;4936189;29;20125;-83
2023/04/21 09:19:49;;;;;;;;;;;11.40;78.90;;;-151.14;100.00;62537.16;4936217;29;20102;-82
2023/04/21 09:22:17;;;;;;;;;;;11.40;78.80;;;-151.14;100.00;62537.16;4952078;29;19922;-83
2023/04/21 09:24:46;;;;;;;;;;;11.50;78.90;;;-151.14;100.00;62537.16;4951566;29;19923;-83
2023/04/21 09:27:16;;;;;;;;;;;11.50;78.80;;;-151.14;100.00;62537.16;4936088;29;19923;-83
2023/04/21 09:29:48;;;;;;;;;;;11.50;78.80;;;-151.14;100.00;62537.16;4936450;29;19929;-84
2023/04/21 09:32:19;;;;;;;;;;;11.50;78.70;;;-151.14;100.00;62537.16;4935933;29;19922;-84
2023/04/21 09:34:47;;;;;;;;;;;11.50;78.60;;;-151.14;100.00;62537.16;4935337;29;20232;-84
2023/04/21 09:37:15;;;;;;;;;;;11.50;78.60;;;-151.14;100.00;62537.16;4935942;29;20233;-84
2023/04/21 09:39:46;;;;;;;;;;;11.50;78.60;;;-151.14;100.00;62537.16;4952074;29;20214;-83
2023/04/21 09:42:16;;;;;;;;;;;11.50;78.60;;;-151.14;100.00;62537.16;4920070;29;19922;-83
2023/04/21 09:44:44;;;;;;;;;;;11.50;78.50;;;-151.14;100.00;62537.16;4935217;29;19923;-84
2023/04/21 09:47:13;;;;;;;;;;;11.50;78.50;;;-151.14;100.00;62537.16;4922663;29;19923;-84
2023/04/21 09:49:43;;;;;;;;;;;11.50;78.50;;;-151.14;100.00;62537.16;4916806;29;19992;-83
2023/04/21 09:52:13;;;;;;;;;;;11.50;78.50;;;-151.14;100.00;62537.16;4932520;29;19930;-83
2023/04/21 09:54:45;;;;;;;;;;;11.50;78.50;;;-151.14;100.00;62537.16;4933177;29;19923;-82
2023/04/21 09:57:19;;;;;;;;;;;11.50;78.50;;;-151.14;100.00;62537.16;4950108;29;20099;-83
2023/04/21 09:59:47;;;;;;;;;;;11.60;78.50;;;-151.14;100.00;62537.16;4951835;29;19923;-83
2023/04/21 10:02:15;;;;;;;;;;;11.60;78.40;;;-151.14;100.00;62537.16;4935813;29;19929;-83
2023/04/21 10:04:43;;;;;;;;;;;11.60;78.50;;;-151.14;100.00;62537.16;4939685;28;19922;-84
2023/04/21 10:07:11;;;;;;;;;;;11.60;78.40;;;-151.14;100.00;62537.16;4957942;28;19928;-84
2023/04/21 10:09:43;;;;;;;;;;;11.50;78.40;;;-151.14;100.00;62537.16;4941942;28;19932;-84
2023/04/21 10:12:11;;;;;;;;;;;11.50;78.40;;;-151.14;100.00;62537.16;4958069;28;20116;-84
2023/04/21 10:14:40;;;;;;;;;;;11.50;78.50;;;-151.14;100.00;62537.16;4957309;28;19922;-84
2023/04/21 10:17:09;;;;;;;;;;;11.50;78.60;;;-151.14;100.00;62537.16;4957751;28;20214;-84
2023/04/21 10:19:39;;;;;;;;;;;11.50;78.60;;;-151.14;100.00;62537.16;4941780;28;19928;-83
2023/04/21 10:22:08;;;;;;;;;;;11.50;78.80;;;-151.14;100.00;62537.16;4941825;28;19922;-84
2023/04/21 10:24:38;;;;;;;;;;;11.50;78.80;;;-151.14;100.00;62537.16;4941208;28;19929;-84
2023/04/21 10:27:06;;;;;;;;;;;11.50;78.80;;;-151.14;100.00;62537.16;4957664;28;20213;-84
2023/04/21 10:29:34;;;;;;;;;;;11.50;78.90;;;-151.14;100.00;62537.16;4957730;28;19929;-85
2023/04/21 10:32:03;;;;;;;;;;;11.50;78.80;;;-151.14;100.00;62537.16;4957686;28;19929;-84
2023/04/21 10:34:35;;;;;;;;;;;11.40;78.80;;;-151.14;100.00;62537.16;4973047;28;19929;-84
2023/04/21 10:37:11;;;;;;;;;;;11.40;78.80;;;-151.14;100.00;62537.16;4973782;28;20136;-84
2023/04/21 10:39:44;;;;;;;;;;;11.40;78.90;;;-151.14;100.00;62537.16;4957501;28;20227;-84
2023/04/21 10:42:19;;;;;;;;;;;11.40;78.90;;;-151.14;100.00;62537.16;4973501;28;19944;-83
2023/04/21 10:44:52;;;;;;;;;;;11.30;79.00;;;-151.14;100.00;62537.16;4956912;28;19922;-84
2023/04/21 10:47:27;;;;;;;;;;;11.30;79.10;;;-151.14;100.00;62537.16;4957546;28;19922;-84
2023/04/21 10:49:56;;;;;;;;;;;11.30;79.20;;;-151.14;100.00;62537.16;4973467;28;19922;-84
2023/04/21 10:52:31;;;;;;;;;;;11.30;79.20;;;-151.14;100.00;62537.16;4989454;28;19922;-84
2023/04/21 10:55:07;;;;;;;;;;;11.30;79.20;;;-151.14;100.00;62537.16;4988861;28;20219;-84
2023/04/21 10:57:35;;;;;;;;;;;11.30;79.40;;;-151.14;100.00;62537.16;4957344;28;19922;-84
2023/04/21 11:00:05;;;;;;;;;;;11.30;79.50;;;-151.14;100.00;62537.16;4957157;28;19928;-84
2023/04/21 11:02:35;;;;;;;;;;;11.20;79.40;;;-151.14;100.00;62537.16;4973166;28;19922;-85